Time;durP1;ratioP1;P1;durP2;ratioP2;P2;SDS_P1;SDS_P2;PMS_P1;PMS_P2;Temp;Humidity;BMP_temperature;BMP_pressure;BME280_temperature;BME280_humidity;BME280_pressure;Samples;Min_cycle;Max_cycle;Signal;HPM_P1;HPM_P2
2023/06/30 00:02:12;;;;;;;28.67;12.25;;;17.40;99.90;;;;;;4980496;28;20042;-74
2023/06/30 00:04:38;;;;;;;18.40;13.52;;;17.40;99.90;;;;;;4980927;28;20027;-73
2023/06/30 00:07:05;;;;;;;21.80;13.90;;;17.40;99.90;;;;;;4980758;28;20526;-74
2023/06/30 00:09:31;;;;;;;27.73;12.70;;;17.40;99.90;;;;;;5010639;28;20030;-74
2023/06/30 00:11:57;;;;;;;21.20;13.98;;;17.40;99.90;;;;;;4980438;28;20023;-73
2023/06/30 00:14:22;;;;;;;24.80;13.05;;;17.50;99.90;;;;;;5011940;28;20117;-74
2023/06/30 00:16:49;;;;;;;20.80;12.82;;;17.50;99.90;;;;;;4980494;28;20027;-73
2023/06/30 00:19:16;;;;;;;24.67;13.02;;;17.50;99.90;;;;;;4980818;28;20611;-73
2023/06/30 00:21:42;;;;;;;22.77;14.30;;;17.50;99.90;;;;;;4980174;28;20075;-73
2023/06/30 00:24:14;;;;;;;21.63;13.63;;;17.50;99.90;;;;;;4979244;28;20042;-73
2023/06/30 00:26:40;;;;;;;24.52;14.13;;;17.50;99.90;;;;;;4980027;28;20023;-73
2023/06/30 00:29:07;;;;;;;21.08;13.38;;;17.50;99.90;;;;;;4980353;28;20034;-73
2023/06/30 00:31:32;;;;;;;20.42;14.15;;;17.50;99.90;;;;;;4980351;28;20022;-73
2023/06/30 00:33:58;;;;;;;20.35;13.43;;;17.60;99.90;;;;;;4972689;28;20566;-73
2023/06/30 00:36:24;;;;;;;25.80;13.75;;;17.60;99.90;;;;;;4977761;28;20019;-73
2023/06/30 00:38:51;;;;;;;21.92;13.40;;;17.60;99.90;;;;;;4980281;28;20034;-74
2023/06/30 00:41:18;;;;;;;22.63;14.27;;;17.60;99.90;;;;;;4979933;28;20030;-73
2023/06/30 00:43:44;;;;;;;23.50;13.52;;;17.50;99.90;;;;;;4980491;28;20069;-73
2023/06/30 00:46:13;;;;;;;20.38;13.68;;;17.60;99.90;;;;;;5011094;28;20487;-73
2023/06/30 00:48:39;;;;;;;21.10;14.13;;;17.60;99.90;;;;;;4975241;28;20031;-72
2023/06/30 00:51:05;;;;;;;23.38;13.88;;;17.60;99.90;;;;;;4978575;28;20081;-72
2023/06/30 00:53:31;;;;;;;22.25;13.93;;;17.60;99.90;;;;;;4980098;28;20027;-72
2023/06/30 00:55:57;;;;;;;27.13;16.08;;;17.60;99.90;;;;;;4979362;28;20365;-73
2023/06/30 00:58:23;;;;;;;25.88;16.38;;;17.60;99.90;;;;;;4975390;28;20065;-72
2023/06/30 01:00:54;;;;;;;20.33;14.35;;;17.60;99.90;;;;;;4979600;28;20027;-73
2023/06/30 01:03:29;;;;;;;23.67;12.98;;;17.60;99.90;;;;;;4979715;28;20113;-73
2023/06/30 01:06:17;;;;;;;24.27;14.25;;;17.50;99.90;;;;;;4972061;28;20033;-73
2023/06/30 01:08:49;;;;;;;28.42;15.10;;;17.60;99.90;;;;;;4974426;28;20130;-73
2023/06/30 01:11:15;;;;;;;29.17;15.05;;;17.50;99.90;;;;;;4979209;28;20019;-73
2023/06/30 01:13:42;;;;;;;22.52;13.70;;;17.50;99.90;;;;;;4979521;28;20034;-73
2023/06/30 01:16:12;;;;;;;23.23;13.73;;;17.50;99.90;;;;;;4979433;28;20023;-74
2023/06/30 01:18:41;;;;;;;24.88;14.55;;;17.50;99.90;;;;;;4979441;28;20019;-73
2023/06/30 01:21:12;;;;;;;25.35;15.15;;;17.50;99.90;;;;;;4970938;28;20046;-73
2023/06/30 01:23:42;;;;;;;19.13;13.93;;;17.50;99.90;;;;;;4979450;28;20034;-73
2023/06/30 01:26:08;;;;;;;24.02;15.35;;;17.50;99.90;;;;;;4979220;28;20046;-73
2023/06/30 01:28:34;;;;;;;19.48;13.43;;;17.50;99.90;;;;;;4979085;28;20472;-73
2023/06/30 01:31:01;;;;;;;20.55;13.90;;;17.50;99.90;;;;;;4979377;28;20027;-72
2023/06/30 01:33:28;;;;;;;28.95;14.00;;;17.50;99.90;;;;;;5010214;28;20019;-73
2023/06/30 01:35:54;;;;;;;25.63;14.52;;;17.50;99.90;;;;;;4979218;28;20022;-73
2023/06/30 01:38:20;;;;;;;23.23;15.10;;;17.50;99.90;;;;;;4974789;28;20029;-73
2023/06/30 01:40:46;;;;;;;23.95;13.68;;;17.50;99.90;;;;;;4978844;28;20027;-73
2023/06/30 01:43:13;;;;;;;24.38;14.38;;;17.50;99.90;;;;;;4979039;28;20023;-73
2023/06/30 01:45:40;;;;;;;19.95;13.07;;;17.50;99.90;;;;;;4979114;28;20399;-73
2023/06/30 01:48:06;;;;;;;22.08;14.35;;;17.50;99.90;;;;;;5010030;28;20027;-73
2023/06/30 01:50:32;;;;;;;24.52;16.20;;;17.50;99.90;;;;;;4978930;28;20023;-72
2023/06/30 01:52:59;;;;;;;23.50;15.10;;;17.50;99.90;;;;;;4978859;28;20015;-73
2023/06/30 01:55:25;;;;;;;22.23;14.27;;;17.50;99.90;;;;;;4978608;28;20034;-72
2023/06/30 01:57:51;;;;;;;20.83;14.05;;;17.50;99.90;;;;;;4975965;28;20102;-73
2023/06/30 02:00:18;;;;;;;20.98;14.70;;;17.50;99.90;;;;;;5010031;28;20483;-73
2023/06/30 02:02:44;;;;;;;23.10;15.07;;;17.40;99.90;;;;;;4978722;28;20050;-73
2023/06/30 02:05:09;;;;;;;23.45;15.40;;;17.50;99.90;;;;;;4978588;28;20031;-73
2023/06/30 02:07:35;;;;;;;22.90;15.50;;;17.50;99.90;;;;;;4978528;28;20151;-73
2023/06/30 02:10:01;;;;;;;21.48;14.57;;;17.50;99.90;;;;;;4978098;28;20031;-72
2023/06/30 02:12:27;;;;;;;21.08;14.27;;;17.40;99.90;;;;;;4978512;28;20019;-72
2023/06/30 02:14:53;;;;;;;20.85;15.60;;;17.50;99.90;;;;;;4978308;28;20512;-73
2023/06/30 02:17:31;;;;;;;22.83;15.60;;;17.50;99.90;;;;;;4978548;28;20061;-73
2023/06/30 02:19:57;;;;;;;24.40;14.75;;;17.40;99.90;;;;;;5009355;28;20051;-73
2023/06/30 02:22:23;;;;;;;19.08;13.77;;;17.40;99.90;;;;;;4978260;28;20029;-72
2023/06/30 02:24:49;;;;;;;20.52;14.23;;;17.50;99.90;;;;;;4977996;28;20027;-73
2023/06/30 02:27:16;;;;;;;25.65;16.10;;;17.50;99.90;;;;;;4978090;28;20022;-72
2023/06/30 02:29:43;;;;;;;27.88;15.52;;;17.50;99.90;;;;;;4978188;28;20030;-72
2023/06/30 02:32:08;;;;;;;31.92;15.20;;;17.50;99.90;;;;;;4977486;28;20015;-71
2023/06/30 02:34:34;;;;;;;24.27;15.88;;;17.50;99.90;;;;;;4978112;28;20037;-72
2023/06/30 02:37:00;;;;;;;27.45;15.43;;;17.60;99.90;;;;;;4978339;28;20038;-71
2023/06/30 02:39:26;;;;;;;23.23;16.73;;;17.60;99.90;;;;;;4977881;28;20039;-72
2023/06/30 02:41:52;;;;;;;30.02;17.83;;;17.60;99.90;;;;;;4976725;28;20034;-71
2023/06/30 02:44:17;;;;;;;27.80;16.20;;;17.60;99.90;;;;;;4978038;28;20023;-71
2023/06/30 02:46:44;;;;;;;22.63;15.30;;;17.50;99.90;;;;;;4976927;28;20031;-71
2023/06/30 02:49:09;;;;;;;24.92;15.10;;;17.50;99.90;;;;;;4978238;28;20062;-71
2023/06/30 02:51:35;;;;;;;23.15;13.95;;;17.40;99.90;;;;;;4977980;28;20090;-71
2023/06/30 02:54:01;;;;;;;18.15;12.23;;;17.40;99.90;;;;;;4978085;28;20042;-72
2023/06/30 02:56:26;;;;;;;17.35;12.82;;;17.30;99.90;;;;;;4977741;28;20487;-71
2023/06/30 02:58:52;;;;;;;17.00;10.60;;;17.30;99.90;;;;;;4975450;28;20027;-70
2023/06/30 03:01:21;;;;;;;20.80;13.23;;;17.20;99.90;;;;;;4977717;28;20435;-71
2023/06/30 03:03:47;;;;;;;17.95;12.05;;;17.10;99.90;;;;;;4977888;28;20695;-71
2023/06/30 03:06:12;;;;;;;21.05;12.63;;;17.10;99.90;;;;;;4966753;28;20109;-71
2023/06/30 03:08:38;;;;;;;21.75;13.85;;;17.00;99.90;;;;;;4977402;28;20062;-71
2023/06/30 03:11:04;;;;;;;23.25;13.65;;;17.00;99.90;;;;;;4977414;28;20388;-71
2023/06/30 03:13:29;;;;;;;19.10;11.98;;;17.00;99.90;;;;;;4977604;28;20059;-71
2023/06/30 03:15:55;;;;;;;21.20;9.57;;;16.90;99.90;;;;;;4977931;28;20042;-70
2023/06/30 03:18:21;;;;;;;15.07;9.93;;;16.80;99.90;;;;;;4977815;28;20018;-71
2023/06/30 03:20:46;;;;;;;15.52;9.13;;;16.80;99.90;;;;;;4977528;28;20047;-71
2023/06/30 03:23:14;;;;;;;12.90;8.50;;;16.70;99.90;;;;;;4977727;28;20030;-72
2023/06/30 03:25:39;;;;;;;15.57;8.50;;;16.60;99.90;;;;;;4976153;28;20061;-71
2023/06/30 03:28:05;;;;;;;13.93;9.25;;;16.60;99.90;;;;;;4977566;28;20407;-71
2023/06/30 03:30:30;;;;;;;15.43;7.82;;;16.50;99.90;;;;;;4977762;28;20050;-71
2023/06/30 03:32:56;;;;;;;14.23;9.07;;;16.50;99.90;;;;;;4977602;28;20070;-71
2023/06/30 03:35:22;;;;;;;18.60;8.82;;;16.40;99.90;;;;;;4977609;28;20023;-71
2023/06/30 03:37:48;;;;;;;10.73;7.78;;;16.40;99.90;;;;;;4977676;28;20027;-71
2023/06/30 03:40:13;;;;;;;14.32;8.18;;;16.40;99.90;;;;;;4977319;28;20542;-71
2023/06/30 03:42:39;;;;;;;19.15;7.40;;;16.30;99.90;;;;;;5008880;28;20061;-71
2023/06/30 03:45:06;;;;;;;15.43;8.57;;;16.30;99.90;;;;;;4980722;28;20035;-71
2023/06/30 03:47:31;;;;;;;18.90;8.82;;;16.30;99.90;;;;;;4981125;28;20038;-71
2023/06/30 03:49:57;;;;;;;18.10;8.65;;;16.20;99.90;;;;;;4970404;28;20019;-71
2023/06/30 03:52:22;;;;;;;18.75;10.10;;;16.20;99.90;;;;;;4981067;28;20023;-71
2023/06/30 03:54:49;;;;;;;17.05;9.07;;;16.10;99.90;;;;;;4970018;28;20105;-71
2023/06/30 03:57:15;;;;;;;13.93;9.30;;;16.10;99.90;;;;;;4978717;28;20023;-71
2023/06/30 03:59:40;;;;;;;18.95;8.63;;;16.10;99.90;;;;;;4981158;28;20034;-72
2023/06/30 04:02:06;;;;;;;19.58;8.27;;;16.10;99.90;;;;;;4980600;28;20030;-71
2023/06/30 04:04:32;;;;;;;14.45;9.38;;;16.10;99.90;;;;;;4980934;28;20035;-72
2023/06/30 04:06:57;;;;;;;23.05;10.52;;;16.10;99.90;;;;;;4980732;28;20110;-72
2023/06/30 04:09:23;;;;;;;19.02;9.23;;;16.10;99.90;;;;;;4980557;28;20081;-71
2023/06/30 04:11:49;;;;;;;15.23;8.80;;;16.00;99.90;;;;;;4980727;28;20131;-71
2023/06/30 04:14:15;;;;;;;18.52;9.00;;;16.00;99.90;;;;;;4980576;28;20057;-71
2023/06/30 04:16:41;;;;;;;15.82;9.02;;;16.00;99.90;;;;;;4980667;28;20050;-71
2023/06/30 04:19:07;;;;;;;25.35;8.75;;;16.00;99.90;;;;;;4980626;28;20023;-71
2023/06/30 04:21:32;;;;;;;18.70;7.95;;;16.00;99.90;;;;;;4980506;28;20047;-71
2023/06/30 04:23:58;;;;;;;15.75;8.30;;;16.00;99.90;;;;;;4980431;28;20031;-71
2023/06/30 04:26:24;;;;;;;15.20;8.73;;;16.00;99.90;;;;;;4980075;28;20081;-72
2023/06/30 04:28:49;;;;;;;12.82;8.20;;;16.00;99.90;;;;;;4979040;28;20027;-71
2023/06/30 04:31:15;;;;;;;15.27;8.57;;;16.00;99.90;;;;;;4980375;28;20380;-71
2023/06/30 04:33:41;;;;;;;15.85;8.18;;;15.90;99.90;;;;;;4980407;28;20026;-71
2023/06/30 04:36:07;;;;;;;19.63;8.32;;;15.90;99.90;;;;;;4980277;28;20027;-72
2023/06/30 04:38:33;;;;;;;19.02;8.98;;;15.90;99.90;;;;;;4980188;28;20031;-72
2023/06/30 04:40:59;;;;;;;16.15;7.63;;;15.90;99.90;;;;;;4979961;28;20027;-72
2023/06/30 04:43:25;;;;;;;14.40;7.55;;;15.90;99.90;;;;;;4980163;28;20026;-72
2023/06/30 04:45:51;;;;;;;13.38;8.57;;;15.90;99.90;;;;;;4980324;28;20077;-71
2023/06/30 04:48:16;;;;;;;12.75;6.40;;;15.90;99.90;;;;;;4979925;28;20031;-71
2023/06/30 04:50:42;;;;;;;12.45;7.32;;;15.90;99.90;;;;;;4980075;28;20085;-72
2023/06/30 04:53:08;;;;;;;14.88;7.38;;;15.90;99.90;;;;;;4979990;28;20467;-71
2023/06/30 04:55:34;;;;;;;20.92;8.43;;;15.90;99.90;;;;;;4978878;28;20372;-71
2023/06/30 04:58:00;;;;;;;11.63;7.03;;;15.90;99.90;;;;;;4977077;28;20034;-71
2023/06/30 05:00:26;;;;;;;14.95;6.68;;;15.90;99.90;;;;;;4979885;28;20407;-72
2023/06/30 05:02:53;;;;;;;15.40;6.15;;;15.90;99.90;;;;;;4979756;28;20459;-70
2023/06/30 05:05:18;;;;;;;9.13;6.75;;;15.90;99.90;;;;;;4979822;28;20395;-71
2023/06/30 05:07:45;;;;;;;16.00;6.40;;;15.90;99.90;;;;;;4979625;28;20030;-72
2023/06/30 05:10:11;;;;;;;11.20;5.97;;;15.90;99.90;;;;;;4979379;28;20022;-72
2023/06/30 05:12:37;;;;;;;15.13;6.80;;;15.90;99.90;;;;;;4979606;28;20128;-72
2023/06/30 05:15:03;;;;;;;10.68;5.68;;;15.90;99.90;;;;;;4979500;28;20027;-71
2023/06/30 05:17:29;;;;;;;14.60;7.10;;;15.90;99.90;;;;;;4979487;28;20078;-71
2023/06/30 05:19:55;;;;;;;12.50;5.72;;;15.90;99.90;;;;;;4979309;28;20050;-72
2023/06/30 05:22:20;;;;;;;20.10;5.75;;;16.00;99.90;;;;;;4979397;28;20023;-71
2023/06/30 05:24:46;;;;;;;13.57;6.55;;;16.00;99.90;;;;;;4979112;28;20027;-71
2023/06/30 05:27:12;;;;;;;16.05;5.78;;;16.10;99.90;;;;;;4977923;28;20154;-70
2023/06/30 05:29:37;;;;;;;15.13;5.50;;;16.10;99.90;;;;;;4978086;28;20023;-72
2023/06/30 05:32:03;;;;;;;9.75;6.32;;;16.20;99.90;;;;;;4979152;28;20444;-71
2023/06/30 05:34:29;;;;;;;13.32;5.95;;;16.30;99.90;;;;;;4979178;28;20509;-72
2023/06/30 05:36:55;;;;;;;10.73;5.82;;;16.30;99.90;;;;;;4979121;28;20106;-72
2023/06/30 05:39:22;;;;;;;11.02;5.53;;;16.40;99.90;;;;;;4977635;28;20086;-72
2023/06/30 05:41:48;;;;;;;14.93;6.00;;;16.40;99.90;;;;;;4977710;28;20054;-71
2023/06/30 05:44:13;;;;;;;7.10;4.35;;;16.50;99.90;;;;;;4979034;28;20030;-70
2023/06/30 05:46:39;;;;;;;13.35;5.25;;;16.60;99.90;;;;;;4978955;28;20058;-71
2023/06/30 05:49:05;;;;;;;16.90;5.68;;;16.60;99.90;;;;;;4978715;28;20015;-71
2023/06/30 05:51:35;;;;;;;9.82;5.28;;;16.70;99.90;;;;;;4978891;28;20475;-71
2023/06/30 05:54:02;;;;;;;8.90;4.18;;;16.70;99.90;;;;;;4978812;28;20042;-70
2023/06/30 05:56:29;;;;;;;12.70;4.85;;;16.80;99.90;;;;;;4978513;28;20562;-71
2023/06/30 05:58:55;;;;;;;14.85;4.82;;;16.80;99.90;;;;;;4975957;28;20030;-72
2023/06/30 06:01:20;;;;;;;10.88;4.70;;;16.80;99.90;;;;;;4978770;28;20105;-71
2023/06/30 06:03:47;;;;;;;10.10;4.40;;;16.90;99.90;;;;;;4978669;28;20019;-70
2023/06/30 06:06:12;;;;;;;10.13;4.72;;;16.90;99.90;;;;;;4978546;28;20394;-71
2023/06/30 06:08:40;;;;;;;17.95;5.07;;;16.90;99.90;;;;;;4978599;28;20061;-70
2023/06/30 06:11:05;;;;;;;7.43;4.05;;;16.90;99.90;;;;;;4978203;28;20471;-70
2023/06/30 06:13:37;;;;;;;7.13;4.28;;;16.90;99.90;;;;;;4978559;28;20133;-72
2023/06/30 06:16:05;;;;;;;15.05;5.20;;;17.10;99.90;;;;;;4969258;28;20030;-70
2023/06/30 06:18:31;;;;;;;14.95;4.22;;;17.20;99.90;;;;;;4978402;28;20049;-71
2023/06/30 06:20:57;;;;;;;7.00;4.75;;;17.30;99.90;;;;;;4978537;28;20043;-72
2023/06/30 06:23:23;;;;;;;9.10;3.90;;;17.30;99.90;;;;;;4978359;28;20034;-72
2023/06/30 06:25:50;;;;;;;8.55;3.88;;;17.40;99.90;;;;;;4976880;28;20427;-71
2023/06/30 06:28:16;;;;;;;8.93;3.45;;;17.40;99.90;;;;;;4978190;28;20111;-71
2023/06/30 06:30:42;;;;;;;7.85;3.42;;;17.40;99.90;;;;;;5009771;28;20532;-72
2023/06/30 06:33:07;;;;;;;9.52;3.22;;;17.50;99.90;;;;;;4977517;28;20504;-71
2023/06/30 06:35:35;;;;;;;4.88;2.90;;;17.60;99.90;;;;;;4977919;28;20381;-69
2023/06/30 06:38:02;;;;;;;10.98;3.20;;;17.60;99.90;;;;;;4978242;28;20033;-70
2023/06/30 06:40:30;;;;;;;14.85;3.22;;;17.60;99.90;;;;;;4978098;28;20085;-70
2023/06/30 06:42:56;;;;;;;10.50;3.22;;;17.60;99.90;;;;;;4977420;28;20031;-70
2023/06/30 06:45:23;;;;;;;7.88;3.67;;;17.70;99.90;;;;;;4969285;28;20038;-70
2023/06/30 06:48:22;;;;;;;12.68;3.28;;;17.80;99.90;;;;;;4976060;28;20034;-71
2023/06/30 06:50:59;;;;;;;6.05;3.25;;;17.80;99.90;;;;;;4978102;28;20026;-71
2023/06/30 06:53:32;;;;;;;6.18;3.15;;;17.80;99.90;;;;;;4976506;28;20090;-73
2023/06/30 06:55:59;;;;;;;14.43;6.32;;;17.90;99.90;;;;;;5000916;28;20034;-72
2023/06/30 06:58:30;;;;;;;7.32;3.00;;;17.90;99.90;;;;;;4974338;28;20404;-72
2023/06/30 07:00:56;;;;;;;6.95;2.55;;;18.00;99.90;;;;;;4977644;28;20019;-72
2023/06/30 07:03:21;;;;;;;9.02;3.28;;;18.10;99.90;;;;;;4977418;28;20035;-73
2023/06/30 07:05:47;;;;;;;10.48;3.28;;;18.20;99.90;;;;;;4977103;28;20059;-73
2023/06/30 07:08:15;;;;;;;11.60;3.15;;;18.20;99.90;;;;;;4976336;28;20054;-72
2023/06/30 07:10:41;;;;;;;5.28;2.70;;;18.30;99.90;;;;;;4977090;28;20034;-72
2023/06/30 07:13:07;;;;;;;8.07;2.85;;;18.50;99.90;;;;;;4974370;28;20569;-72
2023/06/30 07:15:34;;;;;;;20.13;3.90;;;18.60;99.90;;;;;;4973777;28;20031;-72
2023/06/30 07:17:59;;;;;;;7.03;3.05;;;18.60;99.90;;;;;;4973716;28;20398;-73
2023/06/30 07:20:26;;;;;;;11.57;3.58;;;18.70;99.90;;;;;;4977546;28;20059;-72
2023/06/30 07:22:53;;;;;;;9.82;3.45;;;18.70;99.90;;;;;;4974443;28;20035;-72
2023/06/30 07:25:19;;;;;;;10.88;3.42;;;18.80;99.90;;;;;;4979631;28;20046;-71
2023/06/30 07:27:55;;;;;;;6.95;3.38;;;18.80;99.90;;;;;;4969865;28;20118;-71
2023/06/30 07:30:22;;;;;;;9.15;3.75;;;18.80;99.90;;;;;;4975390;28;20098;-71
2023/06/30 07:32:49;;;;;;;10.88;3.05;;;18.80;99.90;;;;;;4980772;28;20328;-73
2023/06/30 07:35:16;;;;;;;6.28;2.58;;;18.90;99.90;;;;;;4980008;28;20027;-72
2023/06/30 07:37:41;;;;;;;17.17;2.70;;;19.00;99.90;;;;;;4981047;28;20031;-73
2023/06/30 07:40:07;;;;;;;7.78;3.22;;;19.10;99.90;;;;;;4980496;28;20029;-72
2023/06/30 07:42:33;;;;;;;9.65;2.67;;;19.30;99.90;;;;;;5012312;28;20031;-72
2023/06/30 07:44:59;;;;;;;8.52;2.97;;;19.40;99.90;;;;;;4980827;28;20031;-72
2023/06/30 07:47:25;;;;;;;6.95;2.75;;;19.40;99.90;;;;;;4979949;28;20031;-72
2023/06/30 07:49:50;;;;;;;14.40;2.58;;;19.40;99.90;;;;;;4979437;28;20027;-72
2023/06/30 07:52:16;;;;;;;7.55;2.60;;;19.30;99.90;;;;;;4978408;28;20021;-73
2023/06/30 07:54:43;;;;;;;6.47;2.00;;;19.20;99.90;;;;;;4980436;28;20030;-73
2023/06/30 07:57:08;;;;;;;9.07;2.75;;;19.00;99.90;;;;;;4977560;28;20014;-71
2023/06/30 07:59:35;;;;;;;8.40;2.30;;;19.00;99.90;;;;;;4975076;28;20027;-72
2023/06/30 08:02:01;;;;;;;7.88;2.35;;;18.90;99.90;;;;;;4980479;28;20019;-73
2023/06/30 08:04:27;;;;;;;10.98;3.40;;;18.90;99.90;;;;;;4980453;28;20547;-72
2023/06/30 08:06:54;;;;;;;7.05;2.17;;;18.80;99.90;;;;;;4979677;28;20027;-72
2023/06/30 08:09:20;;;;;;;8.55;2.53;;;18.70;99.90;;;;;;4995725;28;20027;-73
2023/06/30 08:11:45;;;;;;;4.70;2.47;;;18.50;99.90;;;;;;5010732;28;20122;-72
2023/06/30 08:14:11;;;;;;;7.22;3.17;;;18.30;99.90;;;;;;4980088;28;20054;-73
2023/06/30 08:16:36;;;;;;;11.88;4.68;;;18.20;99.90;;;;;;4979493;28;20110;-73
2023/06/30 08:19:02;;;;;;;13.15;5.57;;;18.20;99.90;;;;;;4979551;28;20031;-72
2023/06/30 08:21:28;;;;;;;14.43;3.72;;;18.20;99.90;;;;;;4980041;28;20054;-73
2023/06/30 08:23:53;;;;;;;8.65;3.63;;;18.20;99.90;;;;;;4974757;28;20031;-73
2023/06/30 08:26:19;;;;;;;6.13;3.00;;;18.30;99.90;;;;;;4973649;28;20030;-73
2023/06/30 08:28:45;;;;;;;10.20;3.55;;;18.40;99.90;;;;;;4980486;28;20035;-72
2023/06/30 08:31:10;;;;;;;9.95;3.33;;;18.40;99.90;;;;;;4966391;28;20035;-72
2023/06/30 08:33:36;;;;;;;4.63;2.33;;;18.60;99.90;;;;;;5011617;28;20499;-72
2023/06/30 08:36:02;;;;;;;11.00;2.60;;;18.60;99.90;;;;;;4979013;28;20605;-72
2023/06/30 08:38:28;;;;;;;6.03;2.55;;;18.70;99.90;;;;;;4975410;28;20034;-73
2023/06/30 08:40:53;;;;;;;12.85;2.80;;;19.00;99.90;;;;;;4978144;28;20027;-72
2023/06/30 08:43:22;;;;;;;10.38;2.63;;;19.00;99.90;;;;;;4978577;28;20037;-72
2023/06/30 08:45:48;;;;;;;6.30;3.08;;;19.00;99.90;;;;;;4974271;28;20448;-71
2023/06/30 08:48:18;;;;;;;8.35;3.95;;;19.00;99.90;;;;;;4979625;28;20034;-72
2023/06/30 08:50:44;;;;;;;6.57;2.55;;;19.10;99.90;;;;;;4974223;28;20027;-73
2023/06/30 08:53:10;;;;;;;2.47;1.95;;;19.10;99.90;;;;;;4979581;28;20023;-71
2023/06/30 08:55:36;;;;;;;10.40;2.38;;;19.10;99.90;;;;;;4975923;28;20081;-70
2023/06/30 08:58:02;;;;;;;11.27;3.17;;;19.00;99.90;;;;;;4967158;28;20027;-73
2023/06/30 09:00:28;;;;;;;12.68;2.50;;;19.00;99.90;;;;;;4975033;28;20376;-74
2023/06/30 09:02:55;;;;;;;12.48;2.65;;;19.10;99.90;;;;;;4979417;28;20034;-73
2023/06/30 09:05:22;;;;;;;6.55;2.70;;;19.10;99.90;;;;;;4979025;28;20031;-72
2023/06/30 09:07:56;;;;;;;11.23;2.40;;;19.00;99.90;;;;;;4979154;28;20031;-73
2023/06/30 09:10:26;;;;;;;5.05;2.50;;;19.00;99.90;;;;;;4978817;28;20469;-73
2023/06/30 09:12:57;;;;;;;13.23;3.15;;;19.00;99.90;;;;;;4979340;28;20618;-73
2023/06/30 09:15:24;;;;;;;10.23;2.50;;;19.10;99.90;;;;;;4978554;28;20027;-74
2023/06/30 09:17:52;;;;;;;5.45;2.45;;;19.10;99.90;;;;;;4979333;28;20058;-73
2023/06/30 09:20:19;;;;;;;8.60;2.92;;;19.20;99.90;;;;;;5007848;28;20104;-74
2023/06/30 09:22:45;;;;;;;9.35;3.63;;;19.20;99.90;;;;;;4972763;28;20073;-74
2023/06/30 09:25:26;;;;;;;6.65;2.30;;;19.40;99.90;;;;;;4974058;28;20102;-73
2023/06/30 09:27:55;;;;;;;5.57;2.38;;;19.40;99.90;;;;;;4974283;28;20077;-73
2023/06/30 09:30:34;;;;;;;7.63;2.20;;;19.70;99.90;;;;;;4979177;28;20019;-72
2023/06/30 09:33:00;;;;;;;5.13;2.10;;;19.70;99.90;;;;;;4977620;28;20106;-73
2023/06/30 09:35:35;;;;;;;7.38;2.30;;;20.00;99.90;;;;;;5009311;28;20022;-73
2023/06/30 09:38:00;;;;;;;6.85;2.05;;;20.00;99.90;;;;;;4967062;28;20480;-75
2023/06/30 09:40:26;;;;;;;6.82;1.92;;;19.90;99.90;;;;;;4978439;28;20027;-73
2023/06/30 09:42:55;;;;;;;4.25;1.98;;;19.90;99.90;;;;;;4978232;28;20396;-73
2023/06/30 09:45:21;;;;;;;7.85;2.40;;;20.10;99.90;;;;;;4978383;28;20419;-73
2023/06/30 09:47:55;;;;;;;4.78;2.05;;;20.10;99.90;;;;;;4978048;28;20031;-73
2023/06/30 09:50:24;;;;;;;7.30;2.42;;;20.30;99.90;;;;;;4978621;28;20034;-73
2023/06/30 09:52:50;;;;;;;7.22;1.95;;;20.40;99.90;;;;;;4978604;28;20027;-73
2023/06/30 09:55:16;;;;;;;9.05;2.40;;;20.30;99.90;;;;;;4977717;28;20392;-73
2023/06/30 09:57:43;;;;;;;9.23;2.53;;;20.10;99.90;;;;;;4973472;28;20030;-73
2023/06/30 10:00:16;;;;;;;12.80;2.40;;;20.10;99.90;;;;;;4978364;28;20628;-73
2023/06/30 10:02:43;;;;;;;12.07;2.63;;;20.20;99.90;;;;;;4978586;28;20089;-73
2023/06/30 10:05:12;;;;;;;4.45;2.00;;;20.30;99.90;;;;;;4978312;28;20503;-73
2023/06/30 10:07:41;;;;;;;4.50;2.20;;;20.20;99.90;;;;;;4975912;28;20062;-73
2023/06/30 10:10:11;;;;;;;8.77;2.20;;;20.30;99.90;;;;;;4977681;28;20483;-72
2023/06/30 10:12:39;;;;;;;10.13;2.03;;;20.10;99.90;;;;;;4977941;28;20023;-73
2023/06/30 10:15:09;;;;;;;10.07;2.88;;;20.10;99.90;;;;;;4977937;28;20027;-74
2023/06/30 10:17:36;;;;;;;5.63;2.60;;;20.10;99.90;;;;;;4977575;28;20403;-72
2023/06/30 10:20:05;;;;;;;7.68;2.22;;;20.00;99.90;;;;;;4978263;28;20526;-72
2023/06/30 10:22:30;;;;;;;6.28;1.98;;;20.10;99.90;;;;;;4978316;28;20030;-73
2023/06/30 10:24:56;;;;;;;3.60;1.80;;;20.20;99.90;;;;;;4978169;28;20146;-73
2023/06/30 10:27:23;;;;;;;6.70;1.80;;;20.10;99.90;;;;;;4972850;28;20062;-73
2023/06/30 10:29:49;;;;;;;6.03;2.00;;;20.00;99.90;;;;;;4977011;28;20019;-72
2023/06/30 10:32:20;;;;;;;7.47;2.00;;;19.80;99.90;;;;;;4975685;28;20027;-72
2023/06/30 10:34:47;;;;;;;7.85;2.08;;;19.60;99.90;;;;;;4978130;28;20110;-73
2023/06/30 10:37:14;;;;;;;11.52;2.22;;;19.50;99.90;;;;;;4978169;28;20037;-72
2023/06/30 10:39:40;;;;;;;5.53;2.38;;;19.60;99.90;;;;;;4977908;28;20027;-73
2023/06/30 10:42:06;;;;;;;10.13;2.45;;;19.60;99.90;;;;;;4976576;28;20054;-72
2023/06/30 10:44:43;;;;;;;8.93;2.22;;;19.70;99.90;;;;;;4978086;28;20019;-74
2023/06/30 10:47:09;;;;;;;8.35;2.17;;;19.90;99.90;;;;;;4970920;28;20026;-74
2023/06/30 10:49:41;;;;;;;4.47;1.88;;;20.00;99.90;;;;;;4977852;28;20496;-73
2023/06/30 10:52:09;;;;;;;5.18;2.00;;;20.10;99.90;;;;;;4977731;28;20022;-74
2023/06/30 10:54:41;;;;;;;7.50;2.30;;;20.10;99.90;;;;;;4977311;28;20023;-74
2023/06/30 10:57:11;;;;;;;6.10;2.05;;;20.10;99.90;;;;;;4976382;28;20047;-73
2023/06/30 10:59:39;;;;;;;9.90;1.90;;;20.20;99.90;;;;;;4971308;28;20029;-73
2023/06/30 11:02:22;;;;;;;8.65;2.08;;;20.50;99.90;;;;;;4973776;28;20460;-73
2023/06/30 11:04:50;;;;;;;11.25;1.75;;;20.60;99.90;;;;;;4977766;28;20034;-73
2023/06/30 11:07:24;;;;;;;5.75;2.08;;;20.50;99.90;;;;;;4977645;28;20479;-73
2023/06/30 11:09:49;;;;;;;5.97;1.77;;;20.70;99.90;;;;;;4976418;28;20510;-73
2023/06/30 11:12:16;;;;;;;6.90;1.90;;;20.90;99.90;;;;;;4977461;28;20047;-73
2023/06/30 11:15:01;;;;;;;4.20;1.90;;;21.30;99.90;;;;;;4977715;28;20023;-73
2023/06/30 11:17:48;;;;;;;11.45;2.42;;;21.60;99.90;;;;;;4976384;28;20065;-72
2023/06/30 11:20:14;;;;;;;4.38;1.90;;;21.70;99.90;;;;;;4977219;28;20578;-73
2023/06/30 11:22:40;;;;;;;6.43;1.67;;;21.70;99.90;;;;;;4977796;28;20023;-73
2023/06/30 11:25:13;;;;;;;6.68;1.77;;;21.90;99.90;;;;;;4977164;28;20031;-73
2023/06/30 11:27:39;;;;;;;7.05;1.67;;;21.90;99.90;;;;;;4977867;28;20035;-76
2023/06/30 11:30:07;;;;;;;6.57;1.95;;;22.00;99.90;;;;;;4977568;28;20023;-75
2023/06/30 11:32:35;;;;;;;3.78;1.20;;;22.10;99.90;;;;;;4977704;28;20115;-74
2023/06/30 11:35:01;;;;;;;3.83;1.73;;;22.10;99.90;;;;;;4977642;28;20482;-74
2023/06/30 11:37:29;;;;;;;7.65;2.13;;;22.10;99.90;;;;;;4977592;28;20023;-73
2023/06/30 11:39:58;;;;;;;6.10;1.83;;;22.30;99.90;;;;;;4975224;28;20070;-73
2023/06/30 11:42:24;;;;;;;5.13;1.80;;;22.50;99.90;;;;;;4977492;28;20053;-73
2023/06/30 11:44:50;;;;;;;4.32;1.40;;;22.40;99.90;;;;;;4977818;28;20033;-74
2023/06/30 11:47:20;;;;;;;13.30;2.00;;;22.30;99.90;;;;;;4977458;28;20023;-73
2023/06/30 11:49:46;;;;;;;4.78;1.92;;;22.40;99.90;;;;;;4992362;28;20051;-71
2023/06/30 11:52:14;;;;;;;5.43;1.45;;;22.40;99.90;;;;;;5008483;28;20030;-71
2023/06/30 11:54:40;;;;;;;10.95;2.58;;;22.40;99.90;;;;;;4970473;28;20027;-71
2023/06/30 11:57:07;;;;;;;5.82;1.20;;;22.40;99.90;;;;;;4972544;28;20030;-71
2023/06/30 11:59:33;;;;;;;10.57;2.08;;;22.40;99.90;;;;;;5004901;28;20019;-71
2023/06/30 12:02:00;;;;;;;4.95;1.88;;;22.40;99.90;;;;;;4976159;28;20026;-71
2023/06/30 12:04:26;;;;;;;4.10;1.38;;;22.40;99.90;;;;;;4972874;28;20033;-71
2023/06/30 12:06:55;;;;;;;5.35;1.70;;;22.30;99.90;;;;;;4979772;28;20558;-72
2023/06/30 12:09:22;;;;;;;2.53;1.13;;;22.30;99.90;;;;;;4978481;28;20034;-70
2023/06/30 12:11:49;;;;;;;7.13;1.70;;;22.20;99.90;;;;;;4979374;28;20039;-70
2023/06/30 12:14:16;;;;;;;4.50;1.83;;;22.10;99.90;;;;;;5010211;28;20019;-72
2023/06/30 12:16:43;;;;;;;3.47;1.33;;;22.10;99.90;;;;;;4979391;28;20019;-71
2023/06/30 12:19:08;;;;;;;7.07;1.50;;;22.00;99.90;;;;;;4979655;28;20033;-70
2023/06/30 12:21:35;;;;;;;10.15;2.13;;;22.00;99.90;;;;;;4979147;28;20103;-72
2023/06/30 12:24:04;;;;;;;6.45;1.60;;;22.10;99.90;;;;;;4978555;28;20468;-71
2023/06/30 12:26:30;;;;;;;2.55;1.13;;;21.90;99.90;;;;;;4975822;28;20035;-72
2023/06/30 12:29:05;;;;;;;5.05;1.73;;;21.80;99.90;;;;;;4979601;28;20511;-71
2023/06/30 12:31:31;;;;;;;5.00;2.00;;;21.70;99.90;;;;;;4973129;28;20061;-71
2023/06/30 12:33:57;;;;;;;4.85;1.67;;;21.70;99.90;;;;;;4979028;28;20483;-71
2023/06/30 12:36:27;;;;;;;4.53;1.70;;;21.60;99.90;;;;;;5010231;28;20018;-70
2023/06/30 12:38:52;;;;;;;6.00;1.77;;;21.50;99.90;;;;;;4978805;28;20082;-71